Stinson Municipal Airport San Antonio US
ICAO: KSSF
IATA: SSF
Category: Medium
Scheduled Services: No

Elevation: 577 ft
TransAlt. 18000 ft.

Airport Communications:
SAN ANTONIO APP/DEP:125.7
ATIS:128.8
CLNC DEL:121.7
CTAF:118.2
GND:121.7
TWR:118.2
UNICOM:122.95

KSSF Zoom In..

If you have problems with the map follow the link
https://www.worldairports.se/pages/airport.php?
ICAO=KSSF

Runways:

(A) RW 09 length 5000 ft width 100 ft
---- / hdg 95

(B) RW 14 length 4128 ft width 100 ft
---- / hdg 137

(C) RW 27 length 5000 ft width 100 ft
---- / hdg 275

(D) RW 32 length 4128 ft width 100 ft
---- / hdg 317

Location; KSSF
Day. 27 / Time. 04.53 Zulu
* Altimeter: 29.99
* Temperature: 14° c. 57.2°f.
* Wind from: 070° Speed 03 kn.
Dewpoint: 08° c.
Visibility: 10 Statute Miles.
Clouds: Clear (automated report).

KSSF 270453Z AUTO 07003KT 10SM CLR 14/08 A2999 RMK AO2 SLP153 T01390083 402560111


Wind From 070°
Speed 03 kn.

 
 
jpsmedia worldairports.se 2020   terms of use